»·PEaware :: N729ML KSMX-KBFL

N729ML :: KSMX-KBFL

FLIGHT INFORMATION

Flight Status: Arrived
Operator: Privately registered:
United States
More flights under this callsign
Pilot: Marc L. (15822)
Aircraft: BEECH AIRCRAFT BONANZA
(BE36)
More flights by this aircraft type
Origin: KSMX Santa Maria Pub/Capt Hancock
United States
Destination: KBFL Meadows
United States
More flights between these airports :: More routes between these airports
Route: VFR DIRECT
File this flight plan on PilotEdge
Remarks:
Altitude:
(Current/Filed)
5,500ft
Speed:
(Current/Filed)
160kts
Departed: 09-Jan-18 11:54 AM
Arrived: 09-Jan-18 12:12 PM
Distance/Time
Traveled:
76nm/0:18
Distance/Time
To Go:
Arrived

Flight Plot

Page will automatically refresh every two minutes.

Flight plan parsing failed; only flown route is shown


Map Options




Map Legend


Flown Route
Filed Route
Departure Airport
Arrival Airport
Navaid (VOR, NDB)
Fix

Horizontal Profiles

Position Reports

Time Latitude Longitude Heading Altitude Ground
Speed
09-Jan-18 11:24 34.894054 -120.443661 11 265ft 0kts
09-Jan-18 11:25 34.894055 -120.443661 11 265ft 0kts
09-Jan-18 11:26 34.894092 -120.443617 74 265ft 3kts
09-Jan-18 11:27 34.893885 -120.443884 207 265ft 0kts
09-Jan-18 11:28 34.893882 -120.443886 207 265ft 0kts
09-Jan-18 11:29 34.893879 -120.443888 207 265ft 0kts
09-Jan-18 11:30 34.893878 -120.443889 207 265ft 0kts
09-Jan-18 11:31 34.893878 -120.443889 207 265ft 0kts
09-Jan-18 11:32 34.893878 -120.443889 207 265ft 0kts
09-Jan-18 11:33 34.893878 -120.443889 207 265ft 0kts
09-Jan-18 11:34 34.893878 -120.443889 207 265ft 0kts
09-Jan-18 11:35 34.893878 -120.443889 207 265ft 0kts
09-Jan-18 11:36 34.893878 -120.443889 207 265ft 0kts
09-Jan-18 11:37 34.893878 -120.443889 207 265ft 0kts
09-Jan-18 11:38 34.893878 -120.443889 207 265ft 0kts
09-Jan-18 11:39 34.893878 -120.443889 207 265ft 0kts
09-Jan-18 11:40 34.893878 -120.443889 207 265ft 0kts
09-Jan-18 11:41 34.893878 -120.443889 207 265ft 0kts
09-Jan-18 11:42 34.893878 -120.443889 207 265ft 0kts
09-Jan-18 11:43 34.893878 -120.443889 207 265ft 0kts
09-Jan-18 11:44 34.893878 -120.443889 207 265ft 0kts
09-Jan-18 11:45 34.893878 -120.443889 207 265ft 0kts
09-Jan-18 11:46 34.893878 -120.443889 207 265ft 0kts
09-Jan-18 11:47 34.893878 -120.443889 207 265ft 0kts
09-Jan-18 11:48 34.893878 -120.443889 207 265ft 0kts
09-Jan-18 11:49 34.893878 -120.443889 207 265ft 0kts
09-Jan-18 11:50 34.893878 -120.443889 207 265ft 0kts
09-Jan-18 11:51 34.893878 -120.443889 207 265ft 0kts
09-Jan-18 11:52 34.893878 -120.443889 207 265ft 0kts
09-Jan-18 11:53 34.893878 -120.443889 207 265ft 0kts
09-Jan-18 11:54 34.893878 -120.443889 207 265ft 0kts
09-Jan-18 11:55 34.893878 -120.443889 207 265ft 0kts
09-Jan-18 11:56 34.893878 -120.443889 207 265ft 0kts
09-Jan-18 11:57 34.893878 -120.443889 207 265ft 0kts
09-Jan-18 11:58 34.893878 -120.443889 207 265ft 0kts
09-Jan-18 11:59 34.893878 -120.443889 207 265ft 0kts
09-Jan-18 12:00 35.175220 -119.747546 55 5575ft 166kts
09-Jan-18 12:01 35.198245 -119.697866 60 5456ft 172kts
09-Jan-18 12:02 35.212473 -119.643016 73 5519ft 169kts
09-Jan-18 12:03 35.226744 -119.589181 63 5597ft 163kts
09-Jan-18 12:04 35.249005 -119.540215 50 5784ft 166kts
09-Jan-18 12:05 35.275305 -119.494691 55 5855ft 166kts
09-Jan-18 12:06 35.297988 -119.443688 59 5339ft 179kts
09-Jan-18 12:07 35.321147 -119.390339 60 4202ft 171kts
09-Jan-18 12:08 35.343740 -119.343610 58 3718ft 145kts
09-Jan-18 12:09 35.365132 -119.301255 60 3357ft 143kts
09-Jan-18 12:10 35.385397 -119.256925 61 3012ft 157kts
09-Jan-18 12:11 35.406350 -119.209112 61 2834ft 156kts
09-Jan-18 12:12 35.424200 -119.159796 70 2627ft 160kts
09-Jan-18 12:13 35.426889 -119.107300 130 1968ft 170kts
09-Jan-18 12:14 35.394951 -119.066433 137 1547ft 151kts
09-Jan-18 12:15 35.388771 -119.029443 46 1399ft 119kts
09-Jan-18 12:16 35.414594 -119.032783 319 1037ft 104kts
09-Jan-18 12:17 35.433289 -119.055491 315 527ft 84kts
09-Jan-18 12:18 35.440671 -119.063307 6 511ft 0kts
09-Jan-18 12:19 35.440106 -119.061246 136 511ft 41kts
09-Jan-18 12:20 35.434553 -119.054177 66 511ft 12kts
09-Jan-18 12:21 35.435656 -119.052186 171 511ft 0kts

Navigation Log

Ident Type
Flight plan parsing failed, navigation log unavailable